Accueil
METAR-TAF:

METAR-TAF

Aéroports :

Aéroport de Jersey

Jersey,

latitude: 49-13N, longitude: 002-12W, altitude: 84 m

Observation

Le bulletin a été fait il y a 13 minutes, à 02:50 UTC
Vent 6 kt de nord-ouest
Température 14°C
Humidité 88%
Pression 1019 hPa
Visibilité 10 km ou plus
pas de nuages en-dessous de 1500 mètres et pas de cumulonimbus.

METAR: EGJJ 170250Z AUTO 31006KT CAVOK 14/12 Q1019

Heure: 04:03 (03:03 UTC)

Prévision

Le bulletin a été fait il y a 1 heure et 9 minutes, à 01:54 UTC
Prévision valable du 17 à 03 UTC au 17 à 12 UTC
Vent 8 kt de nord-ouest
Visibilité 10 km ou plus
Quelques nuages à une hauteur de 2500 ft

TAF: EGJJ 170154Z 1703/1712 31008KT 9999 FEW025

Observations et prévisions météorologiques de plus de 4000 aéroports (messages METAR et TAF).

Les stations disponibles sont représentées par des disques jaunes et rouges sur la carte.

Passer la souris dessus pour voir le nom de la station.

Cliquer dessus pour voir les observations et prévisions météorologiques.

Pour changer de carte: cliquez sur les boutons verts avec une croix noire pour zoomer, sur le bouton vert avec un tiret pour effectuer un zoom arrière, ou sur les flèches vertes pour les cartes adjacentes.


METAR-TAF: